Saint Joseph, MO

11:31 AM CST on November 23, 2014 (GMT -0600)
Kansas City International | Change Station
CLOSE
Current Station
Airport
Location: Kansas City International,
Elevation: 1024 ft
Nearby Weather Stations

Elev 1024 ft 39.30 °N, 94.73 °W | Updated 38 minutes ago

Overcast
Overcast
56 °F
Feels Like 56 °F
N
6
Wind Variable Wind from South

Today
High -- | Low -- °F
--% Chance of Precip.
Yesterday
High -- | Low -- °F
Precip. -- in
7:12 AM 4:58 PM
New Moon, 2% visible
Pressure 29.44 in
Visibility 3.0 miles
Clouds Mostly Cloudy 600 ft
Overcast 1100 ft
Dew Point 55 °F
Humidity 97%
Rainfall 0.01 in
Snow Depth Not available.
UV 1 out of 12
Pollen .10 out of 12
Air Quality Not available.
Flu Activity Not available.
METAR KMCI 231653Z 17005KT 3SM BR BKN006 OVC011 13/13 A2945 RMK AO2 SFC VIS 5 SLP969 T01330128

More Conditions Fewer Conditions

Pressure 29.44 in
Visibility 3.0 miles
Clouds Mostly Cloudy 600 ft
Overcast 1100 ft
Dew Point 55 °F
Humidity 97%
Rainfall 0.01 in
Snow Depth Not available.
UV 1 out of 12
Pollen .10 out of 12
Air Quality Not available.
Flu Activity Not available.
METAR KMCI 231653Z 17005KT 3SM BR BKN006 OVC011 13/13 A2945 RMK AO2 SFC VIS 5 SLP969 T01330128

More Conditions Fewer Conditions

10-Day Weather Forecast

Almanac

Astronomy

Nov. 23, 2014 Rise Set
Actual Time
Civil Twilight
Nautical Twilight
Astronomical Twilight
Moon
Length of Visible Light
Length of Day
Tomorrow will be .
, % of the Moon is Illuminated

Today's Extremes

State Highs State Lows

Community

WunderPhotos

Upload Photos

1,773,112 photos uploaded!

WunderBlogs® & News

Nearby

Air Quality

  Air Quality AQ Index Pollutant
Not available.

Snow Depth

Station Depth Elevation

Earthquake Activity

City Distance Mag. Time & Date
Minimum magnitude displayed is 2.5.

Coastal Water Temperatures

Place Temperature

Nearby Weather Stations